Time;durP1;ratioP1;P1;durP2;ratioP2;P2;SDS_P1;SDS_P2;PMS_P1;PMS_P2;Temp;Humidity;BMP_temperature;BMP_pressure;BME280_temperature;BME280_humidity;BME280_pressure;Samples;Min_cycle;Max_cycle;Signal;HPM_P1;HPM_P2
2022/08/31 00:04:54;;;;;;;7.43;4.07;;;;;;;19.29;96.41;100420.13;5590744;31;34569;-69
2022/08/31 00:07:57;;;;;;;15.63;4.50;;;;;;;19.24;97.26;100414.59;5590759;31;33964;-69
2022/08/31 00:11:00;;;;;;;7.10;4.07;;;;;;;19.28;98.47;100410.41;5590401;31;33957;-69
2022/08/31 00:14:06;;;;;;;9.88;4.03;;;;;;;19.41;96.12;100399.50;5590381;31;34331;-69
2022/08/31 00:17:15;;;;;;;6.05;3.97;;;;;;;19.35;95.63;100411.97;5590414;31;34136;-69
2022/08/31 00:20:20;;;;;;;10.18;4.60;;;;;;;19.29;97.06;100412.88;5590556;31;33924;-68
2022/08/31 00:23:36;;;;;;;5.62;4.25;;;;;;;19.20;97.49;100405.31;5589596;31;33849;-69
2022/08/31 00:26:39;;;;;;;7.75;4.32;;;;;;;19.09;97.68;100406.87;5590218;31;33967;-69
2022/08/31 00:29:42;;;;;;;15.75;4.45;;;;;;;19.05;97.79;100413.75;5589195;31;33850;-69
2022/08/31 00:32:44;;;;;;;8.23;4.20;;;;;;;18.93;98.90;100416.31;5590215;31;35167;-69
2022/08/31 00:35:49;;;;;;;7.18;4.10;;;;;;;18.84;99.10;100416.81;5590185;31;34023;-69
2022/08/31 00:38:53;;;;;;;9.38;4.15;;;;;;;18.77;98.97;100414.22;5590241;31;33874;-69
2022/08/31 00:41:56;;;;;;;6.85;3.80;;;;;;;18.75;98.49;100416.28;5589364;31;34483;-69
2022/08/31 00:44:58;;;;;;;5.28;3.67;;;;;;;18.71;98.21;100407.03;5590007;31;33980;-69
2022/08/31 00:48:01;;;;;;;7.68;3.87;;;;;;;18.72;99.34;100408.69;5590023;31;34556;-69
2022/08/31 00:51:04;;;;;;;8.48;4.10;;;;;;;18.65;99.81;100402.53;5590032;31;34588;-69
2022/08/31 00:54:09;;;;;;;9.13;4.28;;;;;;;18.57;100.00;100410.88;5588764;31;34117;-69
2022/08/31 00:57:13;;;;;;;5.60;3.95;;;;;;;18.52;99.76;100414.19;5589638;31;34504;-69
2022/08/31 01:00:21;;;;;;;9.52;4.28;;;;;;;18.50;99.86;100415.44;5589883;31;33942;-69
2022/08/31 01:03:24;;;;;;;6.45;4.40;;;;;;;18.48;99.79;100418.34;5589957;31;34349;-69
2022/08/31 01:06:27;;;;;;;6.43;4.07;;;;;;;18.49;100.00;100419.19;5589885;31;33830;-69
2022/08/31 01:09:34;;;;;;;5.95;4.15;;;;;;;18.46;100.00;100423.09;5589888;31;33875;-69
2022/08/31 01:12:37;;;;;;;7.30;4.10;;;;;;;18.43;99.60;100418.19;5589795;31;34586;-69
2022/08/31 01:15:50;;;;;;;6.72;3.75;;;;;;;18.42;100.00;100416.53;5589700;31;33907;-69
2022/08/31 01:19:00;;;;;;;7.47;4.25;;;;;;;18.41;100.00;100417.56;5589957;31;34309;-69
2022/08/31 01:22:14;;;;;;;7.50;4.40;;;;;;;18.33;100.00;100417.00;5575850;31;32466;-69
2022/08/31 01:25:19;;;;;;;12.65;4.62;;;;;;;18.28;100.00;100417.66;5588649;31;32726;-69
2022/08/31 01:28:21;;;;;;;9.95;4.30;;;;;;;18.27;100.00;100428.62;5588771;31;34594;-69
2022/08/31 01:31:30;;;;;;;5.87;3.90;;;;;;;18.24;100.00;100424.50;5589665;31;33795;-69
2022/08/31 01:34:33;;;;;;;9.23;4.20;;;;;;;18.24;100.00;100425.34;5589583;31;34046;-69
2022/08/31 01:37:36;;;;;;;5.80;4.20;;;;;;;18.28;100.00;100424.91;5589626;31;34635;-69
2022/08/31 01:40:48;;;;;;;6.25;4.20;;;;;;;18.25;100.00;100418.91;5588896;31;32685;-69
2022/08/31 01:43:52;;;;;;;9.45;4.20;;;;;;;18.22;100.00;100413.16;5589564;31;34344;-69
2022/08/31 01:46:55;;;;;;;8.02;4.10;;;;;;;18.18;100.00;100418.16;5589486;31;34540;-69
2022/08/31 01:50:00;;;;;;;6.68;4.22;;;;;;;18.18;100.00;100415.47;5588648;31;33319;-69
2022/08/31 01:53:04;;;;;;;6.35;4.37;;;;;;;18.27;100.00;100413.31;5589758;31;34656;-68
2022/08/31 01:56:12;;;;;;;6.70;4.12;;;;;;;18.25;100.00;100424.28;5589474;31;34163;-69
2022/08/31 01:59:17;;;;;;;6.18;4.05;;;;;;;18.31;98.69;100422.59;5588803;31;33982;-69
2022/08/31 02:02:20;;;;;;;9.65;3.70;;;;;;;18.37;97.04;100419.03;5589397;31;33848;-69
2022/08/31 02:05:23;;;;;;;9.25;3.90;;;;;;;18.42;96.99;100415.72;5588753;31;32634;-69
2022/08/31 02:08:25;;;;;;;7.30;4.18;;;;;;;18.57;95.00;100422.44;5589252;31;33987;-69
2022/08/31 02:11:28;;;;;;;6.53;4.03;;;;;;;18.36;96.24;100424.63;5589330;31;33923;-69
2022/08/31 02:14:31;;;;;;;5.70;3.75;;;;;;;18.27;96.10;100421.38;5589151;31;33874;-69
2022/08/31 02:17:34;;;;;;;7.87;3.80;;;;;;;18.25;96.57;100423.44;5589531;31;35090;-68
2022/08/31 02:20:38;;;;;;;7.50;3.67;;;;;;;18.17;96.95;100423.72;5589419;31;33849;-69
2022/08/31 02:23:41;;;;;;;4.80;3.53;;;;;;;18.10;97.52;100417.59;5589446;31;34057;-68
2022/08/31 02:26:43;;;;;;;6.78;3.97;;;;;;;18.02;97.87;100415.97;5589060;31;34524;-69
2022/08/31 02:29:46;;;;;;;5.70;3.58;;;;;;;17.98;97.00;100405.88;5589157;31;33823;-68
2022/08/31 02:32:52;;;;;;;9.02;4.12;;;;;;;17.91;96.81;100400.53;5588795;31;33938;-69
2022/08/31 02:35:54;;;;;;;6.87;3.90;;;;;;;17.88;96.97;100405.50;5588770;31;34328;-69
2022/08/31 02:39:00;;;;;;;6.22;3.62;;;;;;;17.93;98.44;100421.78;5588743;31;33857;-68
2022/08/31 02:42:03;;;;;;;6.00;3.42;;;;;;;18.11;97.02;100421.88;5589143;31;33770;-69
2022/08/31 02:45:07;;;;;;;5.85;3.90;;;;;;;18.11;96.98;100420.03;5587912;31;35246;-69
2022/08/31 02:48:10;;;;;;;7.03;3.85;;;;;;;18.33;96.59;100423.22;5588529;31;34604;-69
2022/08/31 02:51:15;;;;;;;5.10;3.53;;;;;;;18.15;97.77;100420.44;5588876;31;34094;-68
2022/08/31 02:54:21;;;;;;;6.05;3.95;;;;;;;18.01;99.75;100419.69;5588477;31;33843;-69
2022/08/31 02:57:25;;;;;;;6.43;3.83;;;;;;;17.89;100.00;100410.66;5588789;31;34034;-68
2022/08/31 03:00:28;;;;;;;7.10;3.80;;;;;;;17.84;100.00;100415.03;5588395;31;33913;-69
2022/08/31 03:03:33;;;;;;;6.03;3.62;;;;;;;17.95;97.88;100411.69;5588304;31;34155;-69
2022/08/31 03:06:36;;;;;;;9.32;4.10;;;;;;;17.91;99.23;100405.91;5588353;31;33885;-68
2022/08/31 03:09:39;;;;;;;6.30;4.07;;;;;;;17.91;99.25;100419.31;5588206;31;33832;-69
2022/08/31 03:12:45;;;;;;;8.15;4.20;;;;;;;18.01;98.63;100418.88;5589113;31;32692;-68
2022/08/31 03:15:48;;;;;;;7.65;3.85;;;;;;;18.11;98.01;100425.41;5590702;31;34533;-68
2022/08/31 03:18:51;;;;;;;6.03;3.97;;;;;;;18.27;98.38;100426.75;5590750;31;33871;-68
2022/08/31 03:21:54;;;;;;;5.20;3.72;;;;;;;18.22;96.75;100429.25;5590830;31;34114;-68
2022/08/31 03:24:58;;;;;;;7.28;4.28;;;;;;;18.17;98.45;100426.41;5590742;31;33942;-68
2022/08/31 03:28:01;;;;;;;7.25;4.00;;;;;;;18.11;99.26;100422.72;5590836;31;33833;-69
2022/08/31 03:31:08;;;;;;;8.30;4.18;;;;;;;18.06;100.00;100433.28;5591007;31;33974;-68
2022/08/31 03:34:11;;;;;;;9.13;4.18;;;;;;;18.05;99.49;100428.16;5576837;31;32789;-69
2022/08/31 03:37:20;;;;;;;7.93;4.55;;;;;;;18.04;100.00;100438.06;5590640;31;33919;-69
2022/08/31 03:40:23;;;;;;;7.50;4.60;;;;;;;18.06;100.00;100427.91;5590678;31;33760;-69
2022/08/31 03:43:26;;;;;;;8.38;4.47;;;;;;;18.06;100.00;100430.59;5590645;31;34635;-69
2022/08/31 03:46:31;;;;;;;8.27;4.18;;;;;;;17.92;100.00;100429.03;5590621;31;34473;-69
2022/08/31 03:49:35;;;;;;;10.43;4.25;;;;;;;17.84;100.00;100436.50;5590941;31;35039;-69
2022/08/31 03:52:38;;;;;;;6.47;4.20;;;;;;;17.81;100.00;100441.25;5590868;31;34524;-69
2022/08/31 03:55:42;;;;;;;8.02;4.53;;;;;;;17.69;100.00;100434.91;5589135;31;33010;-69
2022/08/31 03:58:45;;;;;;;6.97;4.50;;;;;;;17.60;100.00;100427.31;5590468;31;34262;-69
2022/08/31 04:01:57;;;;;;;6.47;4.20;;;;;;;17.50;100.00;100432.25;5590461;31;33802;-69
2022/08/31 04:05:16;;;;;;;6.12;4.60;;;;;;;17.41;100.00;100429.00;5590495;31;34534;-69
2022/08/31 04:08:30;;;;;;;7.35;4.62;;;;;;;17.38;100.00;100432.91;5589830;31;34336;-69
2022/08/31 04:11:42;;;;;;;7.60;4.45;;;;;;;17.36;100.00;100423.44;5590621;31;34610;-70
2022/08/31 04:14:50;;;;;;;5.87;4.50;;;;;;;17.36;100.00;100428.81;5590265;31;34238;-69
2022/08/31 04:17:59;;;;;;;9.02;5.10;;;;;;;17.32;100.00;100436.47;5589616;31;33046;-69
2022/08/31 04:21:10;;;;;;;8.38;4.30;;;;;;;17.35;100.00;100437.88;5590599;31;34141;-69
2022/08/31 04:24:13;;;;;;;8.13;4.50;;;;;;;17.33;100.00;100442.66;5590524;31;33869;-70
2022/08/31 04:27:15;;;;;;;9.75;4.68;;;;;;;17.34;100.00;100444.28;5590187;31;34673;-69
2022/08/31 04:30:20;;;;;;;6.28;4.50;;;;;;;17.34;100.00;100437.06;5589986;31;34646;-69
2022/08/31 04:33:23;;;;;;;7.22;4.72;;;;;;;17.36;100.00;100445.72;5590044;31;33872;-69
2022/08/31 04:36:27;;;;;;;6.30;4.82;;;;;;;17.58;100.00;100438.22;5589398;31;33940;-69
2022/08/31 04:39:32;;;;;;;10.88;4.80;;;;;;;17.75;100.00;100447.47;5590336;31;33866;-69
2022/08/31 04:42:37;;;;;;;10.20;5.15;;;;;;;17.73;100.00;100444.19;5590233;31;34010;-69
2022/08/31 04:45:41;;;;;;;5.70;4.65;;;;;;;17.77;100.00;100445.41;5590033;31;33825;-69
2022/08/31 04:48:48;;;;;;;7.95;4.80;;;;;;;17.77;100.00;100442.72;5588955;31;34215;-70
2022/08/31 04:51:51;;;;;;;6.90;4.40;;;;;;;17.78;100.00;100448.91;5589877;31;33952;-70
2022/08/31 04:54:53;;;;;;;6.35;4.60;;;;;;;17.84;100.00;100453.44;5589124;31;33936;-70
2022/08/31 04:57:56;;;;;;;13.45;4.70;;;;;;;17.89;100.00;100448.25;5589184;31;32710;-69
2022/08/31 05:00:59;;;;;;;5.87;4.43;;;;;;;17.97;100.00;100457.91;5589665;31;34465;-69
2022/08/31 05:04:03;;;;;;;10.23;5.28;;;;;;;18.09;100.00;100456.22;5589341;31;34601;-70
2022/08/31 05:07:06;;;;;;;7.97;4.80;;;;;;;18.20;100.00;100444.78;5589740;31;35012;-70
2022/08/31 05:10:08;;;;;;;8.48;5.43;;;;;;;18.31;100.00;100446.75;5589106;31;33935;-69
2022/08/31 05:13:11;;;;;;;8.15;5.62;;;;;;;18.41;100.00;100449.81;5589545;31;34124;-69
2022/08/31 05:16:15;;;;;;;10.68;5.35;;;;;;;18.47;100.00;100450.81;5589006;31;33852;-71
2022/08/31 05:19:19;;;;;;;10.18;5.47;;;;;;;18.61;100.00;100455.06;5589615;31;34624;-72
2022/08/31 05:22:22;;;;;;;9.52;5.57;;;;;;;18.75;100.00;100469.22;5589432;31;33902;-73
2022/08/31 05:25:26;;;;;;;15.65;5.45;;;;;;;18.89;99.59;100463.53;5589484;31;34502;-71
2022/08/31 05:28:32;;;;;;;10.75;4.65;;;;;;;18.83;98.98;100468.97;5588557;31;34057;-72
2022/08/31 05:31:36;;;;;;;7.35;4.43;;;;;;;18.94;98.03;100468.22;5589346;31;34516;-72
2022/08/31 05:34:39;;;;;;;12.07;4.47;;;;;;;18.94;96.24;100469.06;5588559;31;34591;-71
2022/08/31 05:37:42;;;;;;;9.73;4.65;;;;;;;19.02;94.78;100467.97;5589372;31;33956;-71
2022/08/31 05:40:52;;;;;;;5.80;4.32;;;;;;;19.26;92.91;100467.13;5589129;31;34112;-71
2022/08/31 05:43:56;;;;;;;9.20;4.37;;;;;;;19.27;92.80;100468.75;5589385;31;34562;-71
2022/08/31 05:46:58;;;;;;;10.10;4.40;;;;;;;19.29;92.04;100466.66;5589435;31;33965;-71
2022/08/31 05:50:06;;;;;;;10.07;4.30;;;;;;;19.37;91.38;100470.94;5588446;31;33940;-71
2022/08/31 05:53:11;;;;;;;6.18;3.90;;;;;;;19.33;90.42;100470.56;5589335;31;34154;-71
2022/08/31 05:56:18;;;;;;;9.10;4.10;;;;;;;19.51;89.79;100481.34;5588574;31;34496;-71
2022/08/31 05:59:21;;;;;;;7.05;3.90;;;;;;;19.53;88.85;100473.91;5588896;31;34236;-72
2022/08/31 06:02:26;;;;;;;6.32;4.00;;;;;;;19.64;87.32;100474.19;5587824;31;33414;-71
2022/08/31 06:05:31;;;;;;;7.37;4.20;;;;;;;19.63;87.02;100470.69;5588941;31;34033;-71
2022/08/31 06:08:36;;;;;;;8.27;4.37;;;;;;;19.70;88.13;100474.13;5588532;31;33927;-72
2022/08/31 06:11:40;;;;;;;11.02;4.35;;;;;;;20.02;88.76;100471.25;5588730;31;33905;-71
2022/08/31 06:14:44;;;;;;;8.63;4.10;;;;;;;20.20;88.45;100465.81;5588433;31;34180;-70
2022/08/31 06:17:51;;;;;;;6.75;4.07;;;;;;;20.28;86.26;100468.19;5588248;31;33906;-71
2022/08/31 06:21:06;;;;;;;6.53;3.87;;;;;;;20.43;84.16;100470.50;5588430;31;34016;-71
2022/08/31 06:24:11;;;;;;;8.85;3.67;;;;;;;20.64;84.97;100478.03;5588405;31;34411;-72
2022/08/31 06:27:14;;;;;;;5.65;3.37;;;;;;;20.61;83.00;100475.81;5588830;31;33929;-72
2022/08/31 06:30:20;;;;;;;4.82;3.35;;;;;;;20.61;81.72;100473.12;5588289;31;34413;-71
2022/08/31 06:33:24;;;;;;;9.55;3.83;;;;;;;20.59;80.27;100477.91;5587956;31;33252;-72
2022/08/31 06:36:32;;;;;;;11.50;3.87;;;;;;;20.72;80.88;100483.91;5588561;31;33842;-71
2022/08/31 06:39:35;;;;;;;6.55;3.50;;;;;;;20.99;79.69;100475.41;5587739;31;33893;-72
2022/08/31 06:42:38;;;;;;;6.60;3.35;;;;;;;21.06;78.68;100479.62;5588520;31;34291;-73
2022/08/31 06:45:41;;;;;;;6.22;3.33;;;;;;;21.36;77.27;100486.81;5589183;31;34726;-70
2022/08/31 06:48:49;;;;;;;9.88;3.30;;;;;;;22.00;74.66;100483.91;5590471;31;35290;-70
2022/08/31 06:51:52;;;;;;;4.25;2.95;;;;;;;22.40;70.60;100480.34;5589402;31;34686;-72
2022/08/31 06:54:55;;;;;;;4.95;2.65;;;;;;;23.35;66.12;100491.94;5589172;31;34296;-74
2022/08/31 06:58:00;;;;;;;8.15;2.55;;;;;;;22.70;66.05;100488.19;5589949;31;33909;-72
2022/08/31 07:01:14;;;;;;;4.45;2.83;;;;;;;22.90;66.28;100491.25;5589739;31;32818;-70
2022/08/31 07:04:26;;;;;;;5.28;2.30;;;;;;;24.38;59.88;100490.31;5590566;31;34571;-72
2022/08/31 07:07:30;;;;;;;3.70;2.70;;;;;;;24.60;59.35;100495.66;5590354;31;33907;-72
2022/08/31 07:10:33;;;;;;;6.20;2.67;;;;;;;24.45;58.78;100496.34;5590445;31;33967;-72
2022/08/31 07:13:36;;;;;;;7.07;2.70;;;;;;;25.03;56.89;100500.12;5590621;31;34558;-71
2022/08/31 07:16:40;;;;;;;4.18;2.60;;;;;;;24.48;57.91;100495.84;5590113;31;34895;-73
2022/08/31 07:19:43;;;;;;;5.80;2.83;;;;;;;25.15;55.32;100506.22;5589042;31;34744;-72
2022/08/31 07:22:47;;;;;;;3.97;2.60;;;;;;;25.06;55.70;100495.03;5590297;31;34017;-72
2022/08/31 07:25:51;;;;;;;5.05;2.67;;;;;;;25.68;54.16;100498.97;5590489;31;34550;-73
2022/08/31 07:28:55;;;;;;;11.45;2.60;;;;;;;26.14;53.97;100500.75;5590072;31;34185;-71
2022/08/31 07:31:59;;;;;;;6.72;2.62;;;;;;;26.52;51.67;100502.28;5589367;31;32460;-73
2022/08/31 07:35:01;;;;;;;5.95;2.55;;;;;;;26.83;49.67;100506.62;5590055;31;34639;-74
2022/08/31 07:44:52;;;;;;;5.30;2.80;;;;;;;28.09;46.57;100502.03;5590473;31;34215;-72
2022/08/31 07:47:58;;;;;;;5.12;2.47;;;;;;;29.25;43.80;100497.69;5590540;31;35182;-72
2022/08/31 07:51:01;;;;;;;5.25;2.55;;;;;;;28.58;44.04;100510.25;5589364;31;33862;-71
2022/08/31 07:54:05;;;;;;;4.87;2.60;;;;;;;28.70;44.69;100504.44;5590110;31;34237;-71
2022/08/31 07:57:10;;;;;;;7.93;2.70;;;;;;;28.20;45.32;100503.66;5589141;31;33868;-70
2022/08/31 08:00:19;;;;;;;7.00;2.22;;;;;;;29.72;42.83;100505.97;5589542;31;33854;-70
2022/08/31 08:03:28;;;;;;;3.50;1.85;;;;;;;29.27;44.00;100496.31;5589883;31;34293;-70
2022/08/31 08:06:34;;;;;;;4.57;2.53;;;;;;;30.71;39.23;100486.84;5588470;31;33666;-72
2022/08/31 08:09:37;;;;;;;4.15;2.12;;;;;;;30.43;39.90;100488.63;5588747;31;33958;-72
2022/08/31 08:12:42;;;;;;;6.47;2.00;;;;;;;28.66;43.78;100482.31;5589139;31;33908;-72
2022/08/31 08:15:47;;;;;;;5.07;2.00;;;;;;;29.49;41.68;100481.34;5589773;31;34545;-72
2022/08/31 08:18:51;;;;;;;5.12;2.15;;;;;;;30.27;40.78;100473.53;5589865;31;34015;-71
2022/08/31 08:21:54;;;;;;;3.87;2.00;;;;;;;31.54;38.00;100476.88;5589609;31;35032;-71
2022/08/31 08:24:59;;;;;;;2.78;2.03;;;;;;;30.84;38.80;100471.59;5576626;31;34337;-72
2022/08/31 08:28:03;;;;;;;9.05;2.30;;;;;;;30.99;38.72;100472.13;5589392;31;34203;-72
2022/08/31 08:31:27;;;;;;;5.95;2.30;;;;;;;30.76;39.18;100464.03;5588694;31;34092;-70
2022/08/31 08:34:31;;;;;;;6.12;1.98;;;;;;;31.58;37.05;100464.22;5588582;31;32287;-72
2022/08/31 08:37:38;;;;;;;4.50;2.10;;;;;;;30.24;38.06;100460.44;5589502;31;33990;-71
2022/08/31 08:41:04;;;;;;;10.25;2.42;;;;;;;31.45;34.90;100465.81;5589647;31;34413;-71
2022/08/31 08:44:11;;;;;;;6.28;1.75;;;;;;;29.87;39.73;100466.66;5589326;31;34003;-72
2022/08/31 08:47:24;;;;;;;10.77;2.05;;;;;;;31.23;38.09;100462.94;5589525;31;34175;-72
2022/08/31 08:50:40;;;;;;;3.78;2.03;;;;;;;32.78;30.51;100476.38;5576869;31;32450;-72
2022/08/31 08:53:48;;;;;;;4.00;1.70;;;;;;;32.37;29.77;100465.53;5589738;31;34542;-72
2022/08/31 08:56:56;;;;;;;6.45;2.00;;;;;;;33.75;30.48;100458.91;5588929;31;32352;-70
2022/08/31 09:00:07;;;;;;;4.93;1.67;;;;;;;34.13;30.42;100450.09;5589775;31;33922;-71
2022/08/31 09:03:26;;;;;;;6.10;2.08;;;;;;;34.04;29.37;100450.06;5588937;31;33773;-72
2022/08/31 09:06:39;;;;;;;3.62;1.92;;;;;;;34.31;28.65;100448.97;5576083;31;32942;-71
2022/08/31 09:10:15;;;;;;;4.82;1.77;;;;;;;34.27;27.75;100451.59;5587571;31;32491;-73
2022/08/31 09:13:39;;;;;;;2.47;1.67;;;;;;;33.30;28.69;100440.97;5589128;31;32374;-71
2022/08/31 09:17:15;;;;;;;4.62;1.87;;;;;;;31.01;31.43;100438.94;5589803;31;33339;-72
2022/08/31 09:20:18;;;;;;;3.50;1.98;;;;;;;29.62;35.02;100434.19;5589479;31;33978;-71
2022/08/31 09:23:22;;;;;;;2.60;1.90;;;;;;;29.40;37.00;100425.69;5589788;31;33900;-72
2022/08/31 09:26:26;;;;;;;2.50;1.80;;;;;;;28.76;36.72;100419.47;5588831;31;34551;-72
2022/08/31 09:29:31;;;;;;;4.82;1.73;;;;;;;27.95;37.89;100419.22;5588279;31;33287;-71
2022/08/31 09:32:34;;;;;;;5.22;1.90;;;;;;;28.01;38.41;100420.81;5589422;31;34682;-71
2022/08/31 09:35:40;;;;;;;3.28;2.30;;;;;;;28.21;37.50;100417.19;5588418;31;33847;-71
2022/08/31 09:38:45;;;;;;;3.53;2.10;;;;;;;28.58;37.97;100409.25;5589057;31;34402;-69
2022/08/31 09:41:49;;;;;;;4.22;1.92;;;;;;;28.09;36.53;100406.56;5588076;31;33512;-70
2022/08/31 09:44:52;;;;;;;3.30;2.00;;;;;;;28.31;37.18;100401.56;5587754;31;33941;-71
2022/08/31 09:48:00;;;;;;;7.28;5.43;;;;;;;28.47;35.78;100397.59;5589036;31;34424;-70
2022/08/31 09:51:03;;;;;;;5.35;1.95;;;;;;;28.55;37.21;100403.56;5590106;31;33921;-70
2022/08/31 09:57:53;;;;;;;2.72;1.70;;;;;;;28.60;38.37;100392.59;5588294;31;32862;-71
2022/08/31 10:00:56;;;;;;;3.70;2.60;;;;;;;28.53;36.86;100390.19;5589027;31;34592;-71
2022/08/31 10:04:17;;;;;;;3.58;2.00;;;;;;;29.10;35.36;100391.28;5589002;31;34654;-71
2022/08/31 10:07:37;;;;;;;5.60;2.03;;;;;;;28.78;35.11;100384.53;5588456;31;33825;-71
2022/08/31 10:10:42;;;;;;;;;;;;;;;29.43;35.34;100382.22;5589512;31;34233;-71
2022/08/31 10:13:55;;;;;;;2.33;1.95;;;;;;;29.04;37.72;100373.34;5589060;31;34577;-71
2022/08/31 10:17:25;;;;;;;2.22;1.87;;;;;;;28.79;36.03;100371.69;5587973;31;33976;-71
2022/08/31 10:20:37;;;;;;;4.30;2.03;;;;;;;28.79;35.91;100372.50;5588359;31;34541;-72
2022/08/31 10:23:53;;;;;;;3.80;1.90;;;;;;;28.91;35.23;100372.09;5588603;31;35163;-70
2022/08/31 10:27:22;;;;;;;3.92;1.80;;;;;;;29.22;34.94;100369.84;5588116;31;33049;-70
2022/08/31 10:30:33;;;;;;;5.90;2.12;;;;;;;28.60;36.20;100357.91;5570613;31;134868;-71
2022/08/31 10:37:13;;;;;;;3.47;1.90;;;;;;;29.18;34.75;100347.78;5588681;31;34348;-70
2022/08/31 10:40:26;;;;;;;3.58;2.03;;;;;;;28.02;35.98;100341.47;5588620;31;34116;-71
2022/08/31 10:43:40;;;;;;;7.37;2.22;;;;;;;27.67;37.89;100338.94;5588510;31;34289;-72
2022/08/31 10:46:44;;;;;;;3.65;2.22;;;;;;;28.20;36.81;100339.97;5588217;31;34065;-71
2022/08/31 10:49:51;;;;;;;3.85;2.00;;;;;;;32.00;31.57;100334.09;5587666;31;32474;-72
2022/08/31 10:53:21;;;;;;;3.30;1.77;;;;;;;33.17;28.49;100336.25;5587965;31;32497;-71
2022/08/31 10:56:38;;;;;;;2.17;1.70;;;;;;;33.80;27.95;100332.16;5587546;31;32472;-71
2022/08/31 11:00:40;;;;;;;2.62;1.80;;;;;;;35.62;24.81;100334.06;5588499;31;34383;-71
2022/08/31 11:04:17;;;;;;;3.20;1.92;;;;;;;35.72;24.88;100332.88;5588315;31;33842;-71
2022/08/31 11:08:02;;;;;;;4.93;1.80;;;;;;;34.05;27.75;100327.78;5588270;31;33012;-71
2022/08/31 11:11:09;;;;;;;4.18;1.90;;;;;;;31.33;31.09;100326.50;5585669;31;32594;-70
2022/08/31 11:14:33;;;;;;;3.58;1.80;;;;;;;30.93;31.79;100322.66;5587061;31;32393;-70
2022/08/31 11:17:57;;;;;;;5.05;2.00;;;;;;;28.66;35.47;100312.28;5587727;31;34616;-71
2022/08/31 11:21:35;;;;;;;4.60;2.10;;;;;;;28.45;35.73;100317.94;5586780;31;33686;-70
2022/08/31 11:25:02;;;;;;;4.70;2.00;;;;;;;28.09;36.50;100317.38;5587784;31;33950;-72
2022/08/31 11:28:21;;;;;;;2.40;1.75;;;;;;;28.13;36.69;100312.19;5587526;31;33826;-71
2022/08/31 11:31:29;;;;;;;6.35;1.95;;;;;;;28.74;36.06;100311.66;5587846;31;33991;-71
2022/08/31 11:34:45;;;;;;;3.22;1.87;;;;;;;32.10;30.13;100309.13;5590516;31;35064;-70
2022/08/31 11:37:54;;;;;;;3.47;1.98;;;;;;;36.87;24.16;100307.00;5590431;31;33872;-71
2022/08/31 11:40:59;;;;;;;6.90;2.65;;;;;;;38.21;22.67;100312.28;5589731;31;32877;-69
2022/08/31 11:44:04;;;;;;;3.10;1.55;;;;;;;36.37;24.58;100310.00;5577113;31;33383;-70
2022/08/31 11:47:08;;;;;;;4.55;1.83;;;;;;;35.34;25.59;100307.31;5589665;31;34074;-71
2022/08/31 11:50:37;;;;;;;2.50;1.48;;;;;;;36.10;25.15;100305.09;5589914;31;33066;-71
2022/08/31 11:53:43;;;;;;;5.12;1.85;;;;;;;40.34;20.75;100312.53;5590188;31;34533;-71
2022/08/31 11:56:46;;;;;;;5.05;2.00;;;;;;;40.38;20.09;100299.50;5589453;31;32460;-72
2022/08/31 11:59:51;;;;;;;2.62;1.52;;;;;;;39.60;20.39;100297.94;5589773;31;32528;-72
2022/08/31 12:03:08;;;;;;;9.20;1.80;;;;;;;36.73;23.42;100294.69;5589543;31;32259;-73
2022/08/31 12:06:23;;;;;;;5.35;1.70;;;;;;;38.71;21.57;100303.34;5591291;31;33891;-72
2022/08/31 12:10:01;;;;;;;3.17;1.85;;;;;;;38.12;21.97;100295.84;5589799;31;32547;-72
2022/08/31 12:13:18;;;;;;;2.80;1.85;;;;;;;40.33;20.68;100297.81;5585093;31;33423;-70
2022/08/31 12:16:39;;;;;;;2.92;1.60;;;;;;;41.60;18.43;100289.91;5589495;31;33879;-73
2022/08/31 12:19:59;;;;;;;2.80;1.60;;;;;;;42.40;18.65;100278.13;5590067;31;33948;-72
2022/08/31 12:23:35;;;;;;;2.62;1.80;;;;;;;43.68;16.75;100282.59;5590274;31;33984;-72
2022/08/31 12:26:43;;;;;;;3.30;1.75;;;;;;;42.27;18.09;100273.19;5589447;31;33176;-72
2022/08/31 12:29:48;;;;;;;2.45;1.70;;;;;;;39.10;20.90;100271.03;5576382;31;32343;-73
2022/08/31 12:33:14;;;;;;;6.00;1.80;;;;;;;39.10;20.94;100274.59;5590544;31;33879;-71
2022/08/31 12:36:25;;;;;;;3.08;1.85;;;;;;;37.90;21.41;100262.34;5590035;31;34597;-71
2022/08/31 12:39:29;;;;;;;4.35;1.60;;;;;;;35.47;24.54;100264.84;5589850;31;34248;-71
2022/08/31 12:42:58;;;;;;;5.90;1.80;;;;;;;34.11;25.85;100257.66;5589117;31;32854;-71
2022/08/31 12:46:16;;;;;;;2.42;1.90;;;;;;;33.89;27.35;100249.63;5566209;31;34613;-71
2022/08/31 12:49:25;;;;;;;6.95;2.55;;;;;;;33.92;27.88;100249.78;5589342;31;32243;-71
2022/08/31 12:52:55;;;;;;;5.10;1.80;;;;;;;33.18;30.10;100247.16;5589011;31;34232;-71
2022/08/31 12:56:04;;;;;;;5.20;1.80;;;;;;;34.22;26.26;100244.41;5589781;31;35245;-71
2022/08/31 12:59:26;;;;;;;5.00;1.75;;;;;;;35.52;24.64;100243.38;5588645;31;33325;-71
2022/08/31 13:02:51;;;;;;;2.20;2.00;;;;;;;34.01;27.00;100242.31;5589645;31;34158;-70
2022/08/31 13:06:08;;;;;;;3.47;1.80;;;;;;;32.86;28.48;100225.56;5589032;31;33065;-70
2022/08/31 13:09:25;;;;;;;3.12;1.90;;;;;;;33.74;27.71;100226.16;5589936;31;33996;-68
2022/08/31 13:12:28;;;;;;;3.12;1.95;;;;;;;32.65;29.11;100219.84;5588745;31;33989;-70
2022/08/31 13:15:37;;;;;;;6.95;1.83;;;;;;;31.12;30.81;100223.91;5574946;31;33064;-70
2022/08/31 13:18:42;;;;;;;2.92;1.83;;;;;;;30.83;33.16;100218.75;5589419;31;34109;-71
2022/08/31 13:21:52;;;;;;;4.50;2.15;;;;;;;30.90;31.03;100218.31;5589597;31;33836;-72
2022/08/31 13:25:34;;;;;;;3.62;1.90;;;;;;;32.98;28.62;100219.44;5588846;31;33825;-71
2022/08/31 13:28:37;;;;;;;3.33;1.83;;;;;;;35.08;26.06;100224.72;5588544;31;34030;-71
2022/08/31 13:31:48;;;;;;;8.57;1.83;;;;;;;36.16;23.94;100226.41;5588477;31;32988;-70
2022/08/31 13:34:53;;;;;;;2.60;1.73;;;;;;;36.90;22.90;100223.34;5589340;31;33893;-71
2022/08/31 13:38:03;;;;;;;6.68;2.15;;;;;;;35.89;24.42;100230.56;5588223;31;33820;-71
2022/08/31 13:41:17;;;;;;;2.12;1.65;;;;;;;36.10;24.80;100222.22;5575612;31;33580;-71
2022/08/31 13:44:22;;;;;;;2.30;1.70;;;;;;;36.78;23.81;100222.56;5589135;31;33898;-69
2022/08/31 13:47:30;;;;;;;2.20;1.67;;;;;;;34.70;26.01;100220.09;5588589;31;33191;-72
2022/08/31 13:50:48;;;;;;;6.62;1.95;;;;;;;38.60;22.20;100214.34;5575572;31;32791;-71
2022/08/31 13:53:54;;;;;;;2.90;1.85;;;;;;;38.63;21.73;100210.84;5588757;31;33818;-71
2022/08/31 13:57:34;;;;;;;3.65;1.92;;;;;;;39.29;20.95;100217.50;5587438;31;32465;-71
2022/08/31 14:00:41;;;;;;;4.62;1.83;;;;;;;37.70;22.59;100203.25;5555938;31;34071;-70
2022/08/31 14:03:57;;;;;;;4.27;1.83;;;;;;;38.13;21.86;100205.22;5588705;31;33916;-71
2022/08/31 14:07:01;;;;;;;3.25;2.60;;;;;;;37.23;22.75;100203.84;5562232;31;32387;-71
2022/08/31 14:10:20;;;;;;;8.38;2.42;;;;;;;37.66;22.46;100200.38;5587963;31;34531;-72
2022/08/31 14:13:25;;;;;;;4.68;1.87;;;;;;;37.18;22.94;100197.75;5587740;31;33420;-69
2022/08/31 14:16:34;;;;;;;2.87;1.80;;;;;;;34.58;24.98;100197.09;5587464;31;35123;-71
2022/08/31 14:19:37;;;;;;;3.35;1.85;;;;;;;32.27;28.59;100196.72;5574578;31;34100;-71
2022/08/31 14:22:43;;;;;;;2.58;1.60;;;;;;;31.24;30.27;100190.47;5587670;31;33865;-71
2022/08/31 14:25:46;;;;;;;2.53;1.90;;;;;;;31.42;30.74;100193.03;5587038;31;34036;-72
2022/08/31 14:28:52;;;;;;;5.80;2.05;;;;;;;32.16;29.88;100196.19;5587088;31;32655;-69
2022/08/31 14:31:56;;;;;;;5.80;2.08;;;;;;;31.31;30.95;100177.16;5587562;31;34622;-71
2022/08/31 14:35:01;;;;;;;7.80;2.10;;;;;;;31.35;32.01;100184.47;5588265;31;33950;-69
2022/08/31 14:38:03;;;;;;;6.37;2.10;;;;;;;30.59;31.02;100183.37;5587195;31;32334;-71
2022/08/31 14:41:14;;;;;;;4.70;1.98;;;;;;;30.44;32.40;100180.91;5587835;31;33958;-70
2022/08/31 14:44:21;;;;;;;2.40;1.80;;;;;;;29.57;33.39;100180.00;5574494;31;33612;-70
2022/08/31 14:47:28;;;;;;;8.57;2.62;;;;;;;29.79;32.43;100178.25;5574453;31;32701;-70
2022/08/31 14:50:30;;;;;;;5.12;1.80;;;;;;;29.64;33.06;100185.87;5587653;31;33807;-70
2022/08/31 14:53:37;;;;;;;3.28;1.92;;;;;;;29.73;33.83;100179.44;5587630;31;33892;-71